Latest Weather Observations for Beerburrum

IDQ60901

Issued at 6:51 pm EST Monday 4 May 2015 (issued every 10 minutes, with the page automatically refreshed every 10 minutes)

About weather observations | Map of Brisbane area stations | Latest observations for Brisbane area | Other Formats
Station Details ID: 040284 Name: BEERBURRUM FOREST STATION Lat: -26.96 Lon: 152.96 Height: 48.0 m
Data from the previous 72 hours. | See also: Recent months at Beerburrum
Date/Time
EST
Tmp

°C
App
Tmp
°C
Dew
Point
°C
Rel
Hum
%
Delta-T

°C
Wind Press
QNH
hPa
Press
MSL
hPa
Rain
since
9 am
mm
Dir
 
Spd
km/h
Gust
km/h
Spd
kts
Gust
kts
04/06:30pm 18.0 19.4 14.3 79 2.1 CALM 0 0 0 0 - - 0.0
04/06:00pm 18.8 20.3 14.7 77 2.4 CALM 0 0 0 0 - - 0.0
04/05:30pm 19.2 20.6 14.5 74 2.7 CALM 0 0 0 0 - - 0.0
04/05:00pm 20.9 22.3 14.5 67 3.7 CALM 0 0 0 0 - - 0.0
04/04:30pm 23.1 23.5 13.8 55 5.4 E 4 7 2 4 - - 0.0
04/04:00pm 24.6 26.2 15.0 55 5.8 CALM 0 7 0 4 - - 0.0
04/03:30pm 25.3 26.3 14.4 50 6.5 SE 2 9 1 5 - - 0.0
04/03:00pm 25.8 26.0 14.3 49 6.9 ESE 6 9 3 5 - - 0.0
04/02:30pm 25.5 25.4 13.4 47 7.1 SE 6 13 3 7 - - 0.0
04/02:00pm 25.5 25.4 14.0 49 6.8 SE 7 11 4 6 - - 0.0
04/01:30pm 25.6 25.6 14.1 49 6.8 SE 7 11 4 6 - - 0.0
04/01:00pm 25.8 26.0 14.6 50 6.7 ESE 7 11 4 6 - - 0.0
04/12:30pm 26.0 26.7 15.7 53 6.3 E 6 11 3 6 - - 0.0
04/12:00pm 25.2 25.6 15.2 54 6.0 SE 7 13 4 7 - - 0.0
04/11:30am 25.2 25.9 15.5 55 5.9 SE 6 9 3 5 - - 0.0
04/11:00am 24.4 24.4 14.2 53 6.0 SSE 7 13 4 7 - - 0.0
04/10:30am 24.1 24.2 14.5 55 5.7 SSE 7 13 4 7 - - 0.0
04/10:00am 23.2 23.3 14.5 58 5.1 SSE 7 11 4 6 - - 0.0
04/09:30am 22.8 23.3 15.1 62 4.6 SSE 6 9 3 5 - - 0.0
04/09:00am 21.5 23.0 15.8 70 3.4 SSE 2 7 1 4 - - 0.0
04/08:30am 20.7 23.2 17.3 81 2.1 CALM 0 0 0 0 - - 0.0
04/08:00am 18.7 21.3 17.4 92 0.8 CALM 0 0 0 0 - - 0.0
04/07:30am 16.9 18.9 16.1 95 0.5 CALM 0 0 0 0 - - 0.0
04/07:00am 14.6 15.7 13.6 94 0.6 CALM 0 0 0 0 - - 0.0
04/06:30am 14.3 15.3 13.3 94 0.6 CALM 0 0 0 0 - - 0.0
04/06:00am 14.3 15.3 13.2 93 0.6 CALM 0 0 0 0 - - 0.0
04/05:30am 14.5 15.6 13.4 93 0.6 CALM 0 0 0 0 - - 0.0
04/05:00am 15.0 16.3 14.0 94 0.6 CALM 0 0 0 0 - - 0.0
04/04:30am 14.7 15.9 13.7 94 0.6 CALM 0 0 0 0 - - 0.0
04/04:00am 14.6 15.7 13.6 94 0.6 CALM 0 0 0 0 - - 0.0
04/03:30am 14.5 15.6 13.4 93 0.6 CALM 0 0 0 0 - - 0.0
04/03:00am 14.5 15.6 13.4 93 0.6 CALM 0 0 0 0 - - 0.0
04/02:30am 14.5 15.6 13.4 93 0.6 CALM 0 0 0 0 - - 0.0
04/02:00am 14.6 15.6 13.3 92 0.7 CALM 0 0 0 0 - - 0.0
04/01:30am 15.1 16.4 14.0 93 0.6 CALM 0 0 0 0 - - 0.0
04/01:00am 15.0 16.2 13.7 92 0.7 CALM 0 0 0 0 - - 0.0
04/12:30am 15.3 16.6 14.0 92 0.7 CALM 0 0 0 0 - - 0.0
04/12:00am 15.6 17.0 14.5 93 0.6 CALM 0 0 0 0 - - 0.0
 
Date/Time
EST
Tmp

°C
App
Tmp
°C
Dew
Point
°C
Rel
Hum
%
Delta-T

°C
Wind Press
QNH
hPa
Press
MSL
hPa
Rain
since
9 am
mm
Dir
 
Spd
km/h
Gust
km/h
Spd
kts
Gust
kts
03/11:30pm 15.9 17.5 14.8 93 0.6 CALM 0 0 0 0 - - 0.0
03/11:00pm 15.8 17.2 14.3 91 0.9 CALM 0 0 0 0 - - 0.0
03/10:30pm 16.0 17.5 14.7 92 0.7 CALM 0 0 0 0 - - 0.0
03/10:00pm 16.4 18.1 15.1 92 0.8 CALM 0 0 0 0 - - 0.0
03/09:30pm 16.8 18.5 15.3 91 0.9 CALM 0 0 0 0 - - 0.0
03/09:00pm 17.1 18.9 15.6 91 0.9 CALM 0 0 0 0 - - 0.0
03/08:30pm 17.5 19.4 15.7 89 1.1 CALM 0 0 0 0 - - 0.0
03/08:00pm 17.9 20.0 16.2 90 1.0 CALM 0 0 0 0 - - 0.0
03/07:30pm 18.5 20.7 16.5 88 1.2 CALM 0 0 0 0 - - 0.0
03/07:00pm 19.1 21.5 16.9 87 1.3 CALM 0 0 0 0 - - 0.0
03/06:30pm 19.1 21.4 16.7 86 1.4 CALM 0 0 0 0 - - 0.0
03/06:00pm 19.3 21.4 16.2 82 1.9 CALM 0 0 0 0 - - 0.0
03/05:30pm 20.3 22.4 16.3 78 2.4 CALM 0 0 0 0 - - 0.0
03/05:00pm 20.9 22.8 16.7 77 2.6 SSE 2 6 1 3 - - 0.0
03/04:30pm 21.9 24.3 17.1 74 2.9 CALM 0 0 0 0 - - 0.0
03/04:00pm 22.4 24.3 16.7 70 3.5 SSE 2 6 1 3 - - 0.0
03/03:30pm 23.6 25.0 16.4 64 4.4 S 4 9 2 5 - - 0.0
03/03:00pm 23.3 24.4 15.6 62 4.6 SSE 4 9 2 5 - - 0.0
03/02:30pm 23.2 24.1 16.0 64 4.4 S 6 11 3 6 - - 0.0
03/02:00pm 23.0 24.0 16.3 66 4.1 S 6 11 3 6 - - 0.0
03/01:30pm 22.8 24.4 16.8 69 3.7 SSW 4 9 2 5 - - 0.0
03/01:00pm 22.9 23.8 15.2 62 4.6 SSE 4 7 2 4 - - 0.0
03/12:30pm 23.4 24.5 15.7 62 4.6 S 4 9 2 5 - - 0.0
03/12:00pm 23.4 24.0 15.2 60 4.9 S 6 9 3 5 - - 0.0
03/11:30am 23.9 23.7 14.6 56 5.5 W 9 20 5 11 - - 0.0
03/11:00am 23.8 24.0 14.8 57 5.4 W 7 15 4 8 - - 0.0
03/10:30am 23.3 23.1 14.6 58 5.2 W 9 17 5 9 - - 0.0
03/10:00am 22.3 23.0 15.6 66 4.0 SW 6 11 3 6 - - 0.0
03/09:30am 22.3 22.3 14.2 60 4.7 WSW 7 13 4 7 - - 0.0
03/09:00am 21.4 21.6 14.8 66 3.9 SW 7 13 4 7 - - 0.0
03/08:30am 20.4 20.4 14.1 67 3.7 WSW 7 17 4 9 - - 0.0
03/08:00am 19.6 19.9 14.6 73 2.9 SE 6 11 3 6 - - 0.0
03/07:30am 17.8 18.0 14.1 79 2.1 S 6 15 3 8 - - 0.0
03/07:00am 17.5 16.7 14.0 80 2.0 WSW 11 22 6 12 - - 0.0
03/06:30am 16.7 17.1 13.8 83 1.6 SSE 4 7 2 4 - - 0.0
03/06:00am 16.4 16.4 13.5 83 1.6 S 6 13 3 7 - - 0.0
03/05:30am 16.7 16.4 13.4 81 1.9 E 7 20 4 11 - - 0.0
03/05:00am 16.7 16.1 13.4 81 1.9 WSW 9 20 5 11 - - 0.0
03/04:30am 17.0 16.8 13.5 80 2.0 SW 7 15 4 8 - - 0.0
03/04:00am 17.2 17.1 13.9 81 1.9 SSW 7 11 4 6 - - 0.0
03/03:30am 17.6 17.6 14.1 80 2.0 SW 7 15 4 8 - - 0.0
03/03:00am 17.1 17.3 14.2 83 1.7 SSW 6 11 3 6 - - 0.0
03/02:30am 17.0 17.1 13.9 82 1.8 SSW 6 7 3 4 - - 0.0
03/02:00am 17.9 17.0 13.8 77 2.3 W 11 17 6 9 - - 0.0
03/01:30am 18.0 17.5 13.7 76 2.4 W 9 19 5 10 - - 0.0
03/01:00am 18.1 17.6 13.8 76 2.5 W 9 17 5 9 - - 0.0
03/12:30am 19.0 17.8 14.1 73 2.8 W 13 28 7 15 - - 0.0
03/12:00am 18.4 17.9 13.7 74 2.7 W 9 17 5 9 - - 0.0
 
Date/Time
EST
Tmp

°C
App
Tmp
°C
Dew
Point
°C
Rel
Hum
%
Delta-T

°C
Wind Press
QNH
hPa
Press
MSL
hPa
Rain
since
9 am
mm
Dir
 
Spd
km/h
Gust
km/h
Spd
kts
Gust
kts
02/11:30pm 18.4 18.3 13.9 75 2.6 W 7 15 4 8 - - 0.0
02/11:00pm 18.6 17.8 13.9 74 2.7 WNW 11 24 6 13 - - 0.0
02/10:30pm 18.0 17.6 14.1 78 2.2 W 9 17 5 9 - - 0.0
02/10:00pm 17.2 16.9 14.5 84 1.6 NW 9 15 5 8 - - 0.0
02/09:30pm 14.3 15.2 13.0 92 0.7 CALM 0 6 0 3 - - 0.0
02/09:00pm 14.4 15.3 12.8 90 0.9 CALM 0 2 0 1 - - 0.0
02/08:30pm 14.9 15.7 13.6 92 0.7 E 2 7 1 4 - - 0.0
02/08:00pm 15.3 16.6 14.0 92 0.7 CALM 0 0 0 0 - - 0.0
02/07:30pm 15.2 16.3 13.6 90 0.9 CALM 0 0 0 0 - - 0.0
02/07:00pm 15.6 16.9 14.0 90 0.9 CALM 0 0 0 0 - - 0.0
02/06:30pm 16.1 17.4 14.1 88 1.1 CALM 0 0 0 0 - - 0.0
02/06:00pm 16.6 17.7 13.5 82 1.7 CALM 0 0 0 0 - - 0.0
02/05:30pm 18.2 18.3 13.9 76 2.5 NNE 6 11 3 6 - - 0.0
02/05:00pm 19.7 19.7 13.6 68 3.5 NNW 6 9 3 5 - - 0.0
02/04:30pm 21.3 20.7 12.4 57 5.0 W 7 17 4 9 - - 0.0
02/04:00pm 23.1 23.9 14.7 59 5.0 S 4 11 2 6 - - 0.0
02/03:30pm 23.8 24.7 13.9 54 5.8 SSW 2 6 1 3 - - 0.0
02/03:00pm 24.1 24.0 13.3 51 6.3 WSW 6 11 3 6 - - 0.0
02/02:30pm 23.3 22.4 12.6 51 6.1 W 9 15 5 8 - - 0.0
02/02:00pm 23.2 22.7 12.8 52 6.0 W 7 15 4 8 - - 0.0
02/01:30pm 23.3 23.2 13.8 55 5.6 SW 7 13 4 7 - - 0.0
02/01:00pm 22.9 23.1 14.7 60 4.9 WSW 7 15 4 8 - - 0.0
02/12:30pm 22.3 21.9 14.2 60 4.7 W 9 15 5 8 - - 0.0
02/12:00pm 21.9 21.5 14.0 61 4.6 W 9 15 5 8 - - 0.0
02/11:30am 21.7 21.3 14.1 62 4.4 WNW 9 15 5 8 - - 0.0
02/11:00am 21.6 21.5 15.0 66 3.9 WSW 9 17 5 9 - - 0.0
02/10:30am 20.9 20.6 14.5 67 3.7 W 9 15 5 8 - - 0.0
02/10:00am 20.2 20.2 14.3 69 3.4 WSW 7 13 4 7 - - 0.0
02/09:30am 19.6 19.7 14.4 72 3.0 WSW 7 11 4 6 - - 0.0
02/09:00am 18.8 19.1 14.5 76 2.5 S 6 13 3 7 - - 233.2
02/08:30am 17.8 19.6 15.4 86 1.4 CALM 0 6 0 3 - - 233.2
02/08:00am 15.9 17.5 14.8 93 0.6 CALM 0 0 0 0 - - 233.2
02/07:30am 14.4 15.5 13.6 95 0.4 CALM 0 0 0 0 - - 233.2
02/07:00am 12.0 12.4 11.1 94 0.5 CALM 0 0 0 0 - - 233.2
02/06:30am 11.8 12.1 10.9 94 0.5 CALM 0 0 0 0 - - 233.2
02/06:00am 11.8 11.7 10.9 94 0.5 E 2 7 1 4 - - 233.2
02/05:30am 11.9 12.2 11.0 94 0.5 CALM 0 0 0 0 - - 233.2
02/05:00am 12.2 12.6 11.3 94 0.5 CALM 0 0 0 0 - - 233.2
02/04:30am 12.5 11.9 11.6 94 0.5 ENE 6 7 3 4 - - 233.0
02/04:00am 12.7 13.3 11.8 94 0.5 CALM 0 0 0 0 - - 233.0
02/03:30am 13.3 12.9 12.4 94 0.5 NE 6 7 3 4 - - 233.0
02/03:00am 13.2 12.8 12.3 94 0.5 NE 6 7 3 4 - - 233.0
02/02:30am 13.7 13.8 12.6 93 0.6 ENE 4 7 2 4 - - 233.0
02/02:00am 13.7 14.1 12.4 92 0.7 E 2 6 1 3 - - 233.0
02/01:30am 14.6 14.8 13.1 91 0.8 E 4 6 2 3 - - 233.0
02/01:00am 14.7 14.7 12.4 86 1.3 E 4 7 2 4 - - 233.0
02/12:30am 16.4 16.2 13.5 83 1.6 NNW 7 15 4 8 - - 233.0
02/12:00am 16.2 16.7 13.9 86 1.3 NE 4 11 2 6 - - 233.0
 
Date/Time
EST
Tmp

°C
App
Tmp
°C
Dew
Point
°C
Rel
Hum
%
Delta-T

°C
Wind Press
QNH
hPa
Press
MSL
hPa
Rain
since
9 am
mm
Dir
 
Spd
km/h
Gust
km/h
Spd
kts
Gust
kts
01/11:30pm 16.1 16.2 13.9 87 1.2 N 6 9 3 5 - - 233.0
01/11:00pm 16.9 16.3 14.5 86 1.4 WNW 11 24 6 13 - - 233.0
01/10:30pm 16.9 15.9 14.5 86 1.4 NW 13 30 7 16 - - 233.0
01/10:00pm 16.6 15.2 14.6 88 1.1 WNW 15 32 8 17 - - 233.0
01/09:30pm 16.3 15.0 14.8 91 0.9 WNW 15 32 8 17 - - 232.8
01/09:00pm 16.0 16.3 14.9 93 0.6 WSW 7 19 4 10 - - 232.8
01/08:30pm 15.9 15.4 14.8 93 0.6 SW 11 20 6 11 - - 232.8
01/08:00pm 16.1 15.3 15.0 93 0.6 W 13 28 7 15 - - 232.6
01/07:30pm 16.3 14.4 15.2 93 0.6 W 19 33 10 18 - - 232.4
01/07:00pm 16.3 16.3 15.2 93 0.6 WSW 9 17 5 9 - - 232.2

Latest Capital City Observations: Canberra | Sydney | Melbourne | Brisbane | Adelaide | Perth | Hobart | Darwin

Other Formats:

Comma delimited format used in spreadsheet applications
http://www.bom.gov.au/fwo/IDQ60901/IDQ60901.95566.axf

JavaScript Object Notation format (JSON) in row-major order
http://www.bom.gov.au/fwo/IDQ60901/IDQ60901.95566.json